Time;durP1;ratioP1;P1;durP2;ratioP2;P2;SDS_P1;SDS_P2;PMS_P1;PMS_P2;Temp;Humidity;BMP_temperature;BMP_pressure;BME280_temperature;BME280_humidity;BME280_pressure;Samples;Min_cycle;Max_cycle;Signal;HPM_P1;HPM_P2
2023/01/12 00:01:57;;;;;;;0.00;0.00;;;;;;;7.94;49.84;95288.03;4992077;28;20230;-59
2023/01/12 00:04:24;;;;;;;0.03;0.03;;;;;;;7.50;51.87;95288.59;4972314;28;20203;-59
2023/01/12 00:06:51;;;;;;;0.00;0.00;;;;;;;7.77;51.45;95286.34;4985202;28;20202;-61
2023/01/12 00:09:18;;;;;;;0.00;0.00;;;;;;;7.76;51.22;95287.34;4991746;28;20539;-59
2023/01/12 00:11:45;;;;;;;0.63;0.52;;;;;;;7.88;51.13;95290.78;4991977;28;20198;-60
2023/01/12 00:14:12;;;;;;;0.10;0.10;;;;;;;7.95;50.14;95291.44;4992788;28;20525;-59
2023/01/12 00:16:42;;;;;;;0.00;0.00;;;;;;;8.15;50.01;95289.25;4991910;28;20186;-59
2023/01/12 00:19:30;;;;;;;0.00;0.00;;;;;;;7.98;49.46;95290.97;4992726;28;20218;-59
2023/01/12 00:24:35;;;;;;;0.40;0.35;;;;;;;8.00;50.03;95288.94;4991750;28;20264;-59
2023/01/12 00:27:14;;;;;;;0.00;0.00;;;;;;;7.92;50.75;95297.09;4979697;28;20199;-59
2023/01/12 00:29:41;;;;;;;0.20;0.20;;;;;;;7.91;49.81;95295.53;4991099;28;20237;-59
2023/01/12 00:32:16;;;;;;;0.00;0.00;;;;;;;7.97;50.72;95299.84;4981286;28;20857;-60
2023/01/12 00:34:44;;;;;;;0.00;0.00;;;;;;;8.05;50.63;95299.47;4988673;28;20199;-58
2023/01/12 00:37:11;;;;;;;0.20;0.20;;;;;;;8.01;50.56;95293.16;4991961;28;20588;-58
2023/01/12 00:39:38;;;;;;;0.68;0.65;;;;;;;8.00;50.32;95291.53;4991255;28;20199;-59
2023/01/12 00:47:42;;;;;;;0.00;0.00;;;;;;;7.96;50.60;95295.63;4991363;28;20288;-58
2023/01/12 00:50:09;;;;;;;0.70;0.70;;;;;;;7.89;50.47;95292.34;4991089;28;20650;-58
2023/01/12 00:52:36;;;;;;;0.20;0.20;;;;;;;7.92;50.70;95290.06;4990990;28;20286;-59
2023/01/12 00:55:03;;;;;;;0.00;0.00;;;;;;;7.89;51.25;95287.13;4991202;28;20198;-58
2023/01/12 00:57:30;;;;;;;0.13;0.13;;;;;;;8.09;51.01;95290.16;4990792;28;20242;-59
2023/01/12 00:59:58;;;;;;;0.13;0.13;;;;;;;8.17;49.83;95285.38;4990880;28;20191;-59
2023/01/12 01:02:27;;;;;;;0.00;0.00;;;;;;;8.43;49.54;95283.31;4990804;28;20198;-60
2023/01/12 01:04:54;;;;;;;0.38;0.15;;;;;;;8.38;49.38;95281.38;4990880;28;20251;-61
2023/01/12 01:07:21;;;;;;;0.08;0.08;;;;;;;7.98;49.97;95286.56;4991309;28;20706;-58
2023/01/12 01:09:49;;;;;;;0.30;0.30;;;;;;;8.15;50.09;95277.00;4990616;28;20681;-58
2023/01/12 01:12:16;;;;;;;0.00;0.00;;;;;;;7.75;50.92;95291.00;4990812;28;20205;-59
2023/01/12 01:14:42;;;;;;;0.10;0.10;;;;;;;8.21;50.19;95285.72;4990629;28;20202;-60
2023/01/12 01:17:09;;;;;;;0.08;0.08;;;;;;;8.17;50.24;95290.59;4990838;28;20238;-60
2023/01/12 01:19:36;;;;;;;0.10;0.10;;;;;;;8.05;49.95;95291.63;4990503;28;20296;-60
2023/01/12 01:22:03;;;;;;;0.00;0.00;;;;;;;8.03;49.84;95294.47;4991284;28;20577;-59
2023/01/12 01:24:30;;;;;;;0.20;0.20;;;;;;;8.11;50.33;95285.50;4990181;28;20206;-60
2023/01/12 01:26:56;;;;;;;1.23;1.10;;;;;;;7.93;50.54;95285.66;4990899;28;20206;-59
2023/01/12 01:29:23;;;;;;;0.00;0.00;;;;;;;7.60;51.59;95280.22;4990798;28;20529;-59
2023/01/12 01:31:53;;;;;;;0.55;0.55;;;;;;;7.78;50.90;95295.75;4990355;28;20237;-60
2023/01/12 01:34:22;;;;;;;0.00;0.00;;;;;;;8.05;50.19;95297.66;4990884;28;20281;-59
2023/01/12 01:36:49;;;;;;;0.00;0.00;;;;;;;8.17;50.56;95295.81;4990918;28;20608;-59
2023/01/12 01:39:16;;;;;;;0.10;0.10;;;;;;;8.02;50.31;95302.53;4990257;28;20253;-59
2023/01/12 01:41:42;;;;;;;0.00;0.00;;;;;;;8.18;49.79;95292.19;4989688;28;20194;-59
2023/01/12 01:44:27;;;;;;;0.00;0.00;;;;;;;7.91;50.37;95305.97;4990618;28;20202;-62
2023/01/12 01:47:01;;;;;;;0.00;0.00;;;;;;;7.78;51.10;95306.19;4990339;28;20245;-59
2023/01/12 01:49:31;;;;;;;0.00;0.00;;;;;;;8.19;49.88;95312.03;4989821;28;20221;-60
2023/01/12 01:52:22;;;;;;;0.00;0.00;;;;;;;8.09;50.64;95313.66;4989270;28;20203;-60
2023/01/12 01:54:53;;;;;;;0.20;0.20;;;;;;;7.82;50.73;95315.16;4978782;28;20202;-60
2023/01/12 01:57:24;;;;;;;0.10;0.10;;;;;;;7.53;52.04;95316.06;4990155;28;20227;-59
2023/01/12 02:00:11;;;;;;;0.95;0.47;;;;;;;7.97;51.06;95315.50;4989909;28;20632;-61
2023/01/12 02:02:41;;;;;;;0.00;0.00;;;;;;;7.82;51.22;95317.75;4989544;28;20234;-60
2023/01/12 02:05:10;;;;;;;1.20;0.40;;;;;;;7.63;51.04;95314.47;4989675;28;20686;-60
2023/01/12 02:07:37;;;;;;;0.00;0.00;;;;;;;7.60;51.50;95319.34;4989996;28;20226;-60
2023/01/12 02:10:04;;;;;;;0.05;0.05;;;;;;;7.70;51.63;95314.38;4989296;28;20236;-61
2023/01/12 02:18:02;;;;;;;0.00;0.00;;;;;;;7.82;51.09;95317.75;4990013;28;20222;-59
2023/01/12 02:20:55;;;;;;;0.20;0.20;;;;;;;7.95;50.85;95312.31;4989527;28;20257;-59
2023/01/12 02:23:52;;;;;;;0.15;0.15;;;;;;;7.06;52.72;95317.81;4989728;28;20194;-59
2023/01/12 02:27:16;;;;;;;0.20;0.20;;;;;;;7.36;51.71;95307.31;4992787;28;20230;-59
2023/01/12 02:30:07;;;;;;;0.00;0.00;;;;;;;7.30;52.73;95308.22;5005851;28;20202;-59
2023/01/12 02:32:47;;;;;;;0.00;0.00;;;;;;;7.15;52.83;95288.56;4944263;29;20747;-60
2023/01/12 02:35:32;;;;;;;0.00;0.00;;;;;;;7.28;52.05;95305.03;4939213;29;20287;-59
2023/01/12 02:38:11;;;;;;;0.40;0.40;;;;;;;7.53;51.63;95303.03;4949643;28;20282;-59
2023/01/12 02:40:52;;;;;;;0.00;0.00;;;;;;;7.73;51.15;95303.47;4950289;28;20685;-59
2023/01/12 02:43:28;;;;;;;0.00;0.00;;;;;;;7.83;51.47;95303.69;4950622;28;20227;-59
2023/01/12 02:46:26;;;;;;;0.00;0.00;;;;;;;7.65;51.73;95306.41;4950143;28;20286;-59
2023/01/12 02:48:56;;;;;;;0.30;0.30;;;;;;;7.43;52.44;95305.38;4950956;28;20204;-59
2023/01/12 02:51:31;;;;;;;0.05;0.05;;;;;;;7.66;51.89;95313.22;4950175;28;20196;-59
2023/01/12 02:54:09;;;;;;;1.17;1.02;;;;;;;7.41;51.32;95305.59;4950214;28;20633;-61
2023/01/12 02:56:41;;;;;;;0.22;0.22;;;;;;;6.65;53.84;95305.56;4950318;28;20571;-59
2023/01/12 02:59:32;;;;;;;0.70;0.63;;;;;;;7.72;51.73;95307.13;4949999;28;20226;-59
2023/01/12 03:02:05;;;;;;;0.90;0.90;;;;;;;7.48;52.07;95305.53;4950662;28;20200;-59
2023/01/12 03:04:32;;;;;;;0.05;0.05;;;;;;;7.39;52.60;95302.44;4950214;28;20238;-59
2023/01/12 03:06:59;;;;;;;0.28;0.28;;;;;;;7.28;52.74;95292.78;4950976;28;20199;-59
2023/01/12 03:09:32;;;;;;;0.00;0.00;;;;;;;7.60;52.24;95299.28;4950369;28;20267;-62
2023/01/12 03:12:12;;;;;;;0.10;0.10;;;;;;;7.48;51.55;95290.66;4950314;28;20200;-58
2023/01/12 03:14:44;;;;;;;0.17;0.17;;;;;;;7.41;51.84;95294.41;4950049;28;20199;-60
2023/01/12 03:17:31;;;;;;;0.60;0.60;;;;;;;7.78;51.45;95285.31;4950520;28;20192;-59
2023/01/12 03:20:06;;;;;;;0.35;0.35;;;;;;;7.75;51.71;95288.41;4949962;28;20216;-60
2023/01/12 03:22:36;;;;;;;0.00;0.00;;;;;;;7.63;51.30;95298.00;4950386;28;20224;-59
2023/01/12 03:25:09;;;;;;;0.63;0.55;;;;;;;7.47;51.86;95293.47;4949923;28;20602;-59
2023/01/12 03:27:45;;;;;;;0.32;0.32;;;;;;;6.78;53.31;95300.16;4950302;28;20211;-59
2023/01/12 03:30:36;;;;;;;0.00;0.00;;;;;;;7.11;53.44;95299.69;4955912;28;20631;-60
2023/01/12 03:33:04;;;;;;;0.10;0.10;;;;;;;7.38;52.17;95289.63;4988624;28;20249;-59
2023/01/12 03:35:37;;;;;;;0.00;0.00;;;;;;;7.22;52.09;95282.47;4988661;28;20284;-60
2023/01/12 03:38:18;;;;;;;0.10;0.10;;;;;;;7.52;52.52;95285.81;4988583;28;20632;-58
2023/01/12 03:40:52;;;;;;;0.43;0.43;;;;;;;7.51;52.47;95294.63;4988636;28;20209;-58
2023/01/12 03:43:36;;;;;;;0.00;0.00;;;;;;;7.45;52.84;95295.53;4988658;28;20202;-60
2023/01/12 03:46:15;;;;;;;0.57;0.38;;;;;;;7.53;52.55;95287.38;4988589;28;20199;-59
2023/01/12 03:48:50;;;;;;;0.00;0.00;;;;;;;7.09;52.88;95284.28;4988637;28;20621;-60
2023/01/12 03:51:27;;;;;;;2.42;1.13;;;;;;;7.60;52.69;95282.84;4988871;28;20205;-62
2023/01/12 03:53:56;;;;;;;0.00;0.00;;;;;;;7.44;52.40;95289.53;4989083;28;20206;-60
2023/01/12 03:56:28;;;;;;;0.00;0.00;;;;;;;7.43;53.24;95284.53;4988590;28;20275;-60
2023/01/12 03:58:55;;;;;;;0.03;0.03;;;;;;;6.92;53.82;95280.72;4988234;28;20306;-59
2023/01/12 04:01:22;;;;;;;0.00;0.00;;;;;;;7.31;53.04;95278.50;4987944;28;20210;-59
2023/01/12 04:03:50;;;;;;;0.00;0.00;;;;;;;7.69;52.32;95281.47;4988950;28;20253;-60
2023/01/12 04:06:16;;;;;;;0.68;0.68;;;;;;;7.81;51.73;95280.44;4988521;28;20198;-60
2023/01/12 04:08:43;;;;;;;0.17;0.17;;;;;;;7.71;52.29;95290.66;4988995;28;20280;-59
2023/01/12 04:13:55;;;;;;;0.00;0.00;;;;;;;7.96;51.92;95286.00;4991807;28;20206;-59
2023/01/12 04:16:22;;;;;;;0.00;0.00;;;;;;;7.74;52.40;95284.97;4992032;28;20635;-59
2023/01/12 04:18:49;;;;;;;0.20;0.20;;;;;;;8.10;51.11;95289.94;4992016;28;20748;-59
2023/01/12 04:24:02;;;;;;;0.00;0.00;;;;;;;8.01;50.97;95286.09;4981123;28;20198;-59
2023/01/12 04:26:29;;;;;;;1.65;1.17;;;;;;;8.13;50.73;95278.25;4991095;28;20245;-60
2023/01/12 04:28:55;;;;;;;0.05;0.05;;;;;;;8.02;51.53;95286.88;4991799;28;20253;-59
2023/01/12 04:31:22;;;;;;;0.00;0.00;;;;;;;7.65;52.08;95285.53;4990893;28;20246;-60
2023/01/12 04:33:49;;;;;;;0.20;0.20;;;;;;;8.05;51.22;95283.81;4992285;28;20207;-60
2023/01/12 04:36:16;;;;;;;1.85;0.80;;;;;;;8.12;51.01;95287.06;4990680;28;20194;-60
2023/01/12 04:38:43;;;;;;;0.57;0.32;;;;;;;8.53;50.83;95297.34;4991653;28;20721;-60
2023/01/12 04:41:09;;;;;;;0.00;0.00;;;;;;;8.65;50.25;95287.63;4991376;28;20237;-60
2023/01/12 04:43:36;;;;;;;1.40;1.30;;;;;;;8.36;50.82;95288.66;4991555;28;20198;-60
2023/01/12 04:46:06;;;;;;;0.00;0.00;;;;;;;8.58;50.47;95296.63;4991201;28;20229;-60
2023/01/12 04:48:33;;;;;;;0.25;0.25;;;;;;;8.51;50.27;95291.56;4991466;28;20194;-60
2023/01/12 04:51:01;;;;;;;0.00;0.00;;;;;;;8.86;49.27;95296.63;4990875;28;20603;-59
2023/01/12 04:53:28;;;;;;;0.10;0.10;;;;;;;8.43;50.08;95281.47;4991315;28;20202;-60
2023/01/12 04:55:57;;;;;;;0.00;0.00;;;;;;;8.16;50.74;95298.66;4990778;28;20651;-61
2023/01/12 04:58:24;;;;;;;0.13;0.13;;;;;;;8.13;51.06;95305.16;4991337;28;20225;-59
2023/01/12 05:00:51;;;;;;;0.20;0.20;;;;;;;8.29;50.82;95298.44;4988459;28;20277;-59
2023/01/12 05:03:18;;;;;;;0.00;0.00;;;;;;;8.55;50.32;95305.75;4989513;28;20214;-60
2023/01/12 05:05:44;;;;;;;0.20;0.20;;;;;;;8.18;50.79;95315.69;4990075;28;20195;-60
2023/01/12 05:10:59;;;;;;;0.45;0.45;;;;;;;8.02;51.05;95305.97;4990938;28;20199;-59
2023/01/12 05:13:29;;;;;;;1.17;0.73;;;;;;;7.85;51.81;95307.66;4990843;28;20234;-60
2023/01/12 05:15:56;;;;;;;0.00;0.00;;;;;;;7.95;51.77;95315.72;4990780;28;20210;-60
2023/01/12 05:18:22;;;;;;;0.35;0.35;;;;;;;8.34;50.26;95314.19;4990911;28;20198;-60
2023/01/12 05:20:49;;;;;;;0.22;0.20;;;;;;;8.40;50.03;95318.50;4990564;28;20285;-60
2023/01/12 05:23:16;;;;;;;0.00;0.00;;;;;;;7.81;51.95;95326.63;4989517;28;20591;-60
2023/01/12 05:25:43;;;;;;;0.00;0.00;;;;;;;8.08;50.83;95327.72;4990670;28;20322;-60
2023/01/12 05:28:09;;;;;;;0.00;0.00;;;;;;;8.17;51.45;95323.75;4991082;28;20198;-60
2023/01/12 05:30:36;;;;;;;0.45;0.45;;;;;;;8.05;51.01;95328.16;4990124;28;20333;-59
2023/01/12 05:33:03;;;;;;;0.00;0.00;;;;;;;8.23;51.11;95333.25;4989757;28;20191;-60
2023/01/12 05:35:30;;;;;;;0.52;0.52;;;;;;;8.50;50.69;95337.00;4988655;28;20198;-60
2023/01/12 05:37:56;;;;;;;0.00;0.00;;;;;;;8.60;50.13;95339.78;4990957;28;20660;-61
2023/01/12 05:40:23;;;;;;;0.00;0.00;;;;;;;8.60;51.59;95345.00;4989997;28;20250;-58
2023/01/12 05:45:36;;;;;;;1.45;1.35;;;;;;;8.72;50.91;95358.06;4990058;28;20190;-61
2023/01/12 05:48:03;;;;;;;0.45;0.45;;;;;;;8.60;50.43;95359.88;4990799;28;20271;-60
2023/01/12 05:50:30;;;;;;;0.13;0.13;;;;;;;8.50;50.49;95363.13;4990295;28;20194;-60
2023/01/12 05:53:07;;;;;;;0.00;0.00;;;;;;;8.06;51.83;95348.03;4977775;28;20202;-60
2023/01/12 05:55:35;;;;;;;2.55;0.52;;;;;;;8.56;51.67;95362.16;4987903;28;20202;-60
2023/01/12 05:58:02;;;;;;;0.28;0.28;;;;;;;8.46;51.86;95364.59;4989078;28;20202;-60
2023/01/12 06:00:29;;;;;;;0.55;0.55;;;;;;;8.38;52.49;95359.72;4987530;28;20241;-59
2023/01/12 06:02:56;;;;;;;1.80;1.65;;;;;;;8.73;50.48;95357.81;4975858;28;20685;-59
2023/01/12 06:05:23;;;;;;;0.00;0.00;;;;;;;8.87;51.43;95361.72;4987554;28;20211;-62
2023/01/12 06:07:49;;;;;;;0.17;0.17;;;;;;;8.80;50.73;95357.66;4988980;28;20347;-59
2023/01/12 06:10:16;;;;;;;0.20;0.20;;;;;;;8.48;51.22;95359.13;4989530;28;20206;-59
2023/01/12 06:15:31;;;;;;;1.95;1.65;;;;;;;8.67;50.90;95361.34;4989322;28;20658;-60
2023/01/12 06:17:58;;;;;;;0.00;0.00;;;;;;;8.43;51.11;95362.41;4990470;28;20195;-60
2023/01/12 06:20:24;;;;;;;3.45;1.30;;;;;;;8.52;51.31;95361.03;4989097;28;20218;-58
2023/01/12 06:22:51;;;;;;;0.68;0.68;;;;;;;8.33;52.30;95356.19;4989610;28;20194;-55
2023/01/12 06:25:18;;;;;;;2.72;1.65;;;;;;;8.51;51.42;95359.47;4989112;28;20232;-61
2023/01/12 06:27:45;;;;;;;0.00;0.00;;;;;;;8.43;51.19;95354.59;4989548;28;20194;-59
2023/01/12 06:30:12;;;;;;;1.25;0.55;;;;;;;8.30;51.38;95351.44;4988648;28;20846;-61
2023/01/12 06:32:40;;;;;;;0.05;0.05;;;;;;;7.82;52.18;95359.50;4989880;28;20270;-59
2023/01/12 06:35:07;;;;;;;0.15;0.15;;;;;;;7.98;52.59;95358.81;4988477;28;20202;-60
2023/01/12 06:37:44;;;;;;;0.10;0.10;;;;;;;8.19;51.92;95360.88;4988269;28;20256;-61
2023/01/12 06:40:12;;;;;;;0.40;0.40;;;;;;;7.86;52.39;95360.66;4988220;28;20611;-61
2023/01/12 06:42:40;;;;;;;0.00;0.00;;;;;;;8.17;52.38;95361.06;4989061;28;20224;-61
2023/01/12 06:45:08;;;;;;;0.47;0.47;;;;;;;8.27;52.39;95372.78;4988768;28;20281;-60
2023/01/12 06:47:46;;;;;;;0.38;0.30;;;;;;;8.23;51.83;95361.97;4989026;28;20732;-60
2023/01/12 06:50:13;;;;;;;0.20;0.20;;;;;;;8.16;52.56;95363.91;4988977;28;20280;-60
2023/01/12 06:52:40;;;;;;;0.00;0.00;;;;;;;8.32;52.41;95365.84;4989839;28;20198;-61
2023/01/12 06:55:08;;;;;;;0.00;0.00;;;;;;;7.93;52.91;95358.72;4988933;28;20317;-60
2023/01/12 06:57:34;;;;;;;0.00;0.00;;;;;;;8.27;51.88;95370.16;4989332;28;20203;-59
2023/01/12 07:00:02;;;;;;;0.10;0.10;;;;;;;7.95;53.14;95374.94;4988599;28;20225;-61
2023/01/12 07:02:29;;;;;;;0.10;0.10;;;;;;;7.50;53.72;95366.06;4989634;28;20237;-60
2023/01/12 07:04:56;;;;;;;0.93;0.55;;;;;;;8.05;53.14;95380.38;4988505;28;20202;-60
2023/01/12 07:07:23;;;;;;;0.00;0.00;;;;;;;7.90;53.28;95385.25;4989128;28;20524;-60
2023/01/12 07:09:49;;;;;;;0.00;0.00;;;;;;;8.41;51.80;95374.91;4988751;28;20218;-60
2023/01/12 07:12:16;;;;;;;0.00;0.00;;;;;;;8.32;51.72;95373.69;4989627;28;20262;-60
2023/01/12 07:14:43;;;;;;;0.00;0.00;;;;;;;7.89;53.35;95370.63;4987708;28;20622;-59
2023/01/12 07:17:11;;;;;;;0.63;0.63;;;;;;;8.08;52.59;95379.94;4989504;28;20208;-60
2023/01/12 07:19:38;;;;;;;1.33;1.23;;;;;;;7.95;53.32;95380.16;4989198;28;20232;-60
2023/01/12 07:22:07;;;;;;;0.22;0.22;;;;;;;7.89;52.93;95381.06;4989541;28;20200;-60
2023/01/12 07:24:34;;;;;;;0.10;0.10;;;;;;;7.70;53.36;95382.19;4989062;28;20248;-58
2023/01/12 07:27:01;;;;;;;0.28;0.28;;;;;;;7.38;54.34;95375.66;4989636;28;20626;-59
2023/01/12 07:29:28;;;;;;;0.68;0.35;;;;;;;7.87;53.24;95377.88;4988385;28;20783;-60
2023/01/12 07:31:55;;;;;;;0.17;0.17;;;;;;;7.88;53.63;95379.47;4988724;28;20226;-60
2023/01/12 07:34:22;;;;;;;0.85;0.85;;;;;;;8.00;53.26;95377.66;4988833;28;20194;-60
2023/01/12 07:36:50;;;;;;;0.10;0.10;;;;;;;7.57;53.97;95371.97;4988926;28;20717;-60
2023/01/12 07:39:17;;;;;;;0.00;0.00;;;;;;;8.19;52.63;95360.88;4988796;28;20644;-61
2023/01/12 07:44:29;;;;;;;0.47;0.47;;;;;;;7.68;54.11;95376.41;4985498;28;20217;-62
2023/01/12 07:46:58;;;;;;;0.10;0.10;;;;;;;8.14;53.32;95379.00;4981783;28;20191;-60
2023/01/12 07:49:26;;;;;;;0.00;0.00;;;;;;;7.83;53.30;95381.94;4989244;28;20286;-59
2023/01/12 07:51:54;;;;;;;0.43;0.35;;;;;;;8.17;52.97;95379.34;4992776;28;20298;-60
2023/01/12 07:54:21;;;;;;;0.10;0.10;;;;;;;8.20;52.51;95378.09;4992431;28;20206;-59
2023/01/12 07:56:48;;;;;;;0.00;0.00;;;;;;;8.16;53.22;95382.19;4992772;28;20205;-60
2023/01/12 07:59:16;;;;;;;0.08;0.08;;;;;;;8.37;52.54;95386.84;4992712;28;20225;-59
2023/01/12 08:01:43;;;;;;;0.00;0.00;;;;;;;7.64;54.24;95393.50;4991728;28;20233;-60
2023/01/12 08:04:10;;;;;;;0.20;0.20;;;;;;;7.89;53.40;95383.66;4992572;28;20627;-59
2023/01/12 08:06:38;;;;;;;0.45;0.45;;;;;;;8.20;53.09;95393.75;4992616;28;20272;-59
2023/01/12 08:09:05;;;;;;;3.05;0.73;;;;;;;8.21;52.70;95395.38;4992668;28;20202;-60
2023/01/12 08:11:31;;;;;;;0.05;0.05;;;;;;;8.34;52.39;95395.13;4992488;28;20202;-59
2023/01/12 08:14:00;;;;;;;0.00;0.00;;;;;;;8.10;53.45;95404.00;4992471;28;20745;-61
2023/01/12 08:16:42;;;;;;;0.03;0.03;;;;;;;7.89;52.92;95402.72;4992322;28;20672;-60
2023/01/12 08:19:15;;;;;;;0.00;0.00;;;;;;;8.25;52.95;95386.06;4992417;28;20261;-61
2023/01/12 08:21:47;;;;;;;0.00;0.00;;;;;;;8.56;51.81;95382.28;4991620;28;20212;-60
2023/01/12 08:24:18;;;;;;;0.50;0.50;;;;;;;8.49;51.77;95387.63;4992507;28;20289;-59
2023/01/12 08:26:49;;;;;;;0.00;0.00;;;;;;;8.92;50.51;95387.19;4991851;28;20209;-59
2023/01/12 08:29:31;;;;;;;0.20;0.20;;;;;;;9.02;50.42;95376.91;4992424;28;20265;-61
2023/01/12 08:32:05;;;;;;;0.00;0.00;;;;;;;9.17;50.67;95385.81;4992026;28;20249;-61
2023/01/12 08:34:39;;;;;;;0.52;0.52;;;;;;;8.85;51.07;95382.06;4991543;28;20674;-60
2023/01/12 08:37:09;;;;;;;0.00;0.00;;;;;;;9.29;50.15;95372.69;4992445;28;20217;-60
2023/01/12 08:39:36;;;;;;;0.00;0.00;;;;;;;9.73;49.36;95373.66;4991611;28;20207;-58
2023/01/12 08:42:03;;;;;;;0.32;0.32;;;;;;;9.10;50.26;95382.53;4991898;28;20195;-61
2023/01/12 08:44:34;;;;;;;1.52;1.35;;;;;;;9.48;49.29;95370.66;4991562;28;20253;-59
2023/01/12 08:47:03;;;;;;;0.05;0.05;;;;;;;9.62;49.33;95369.31;4992051;28;20213;-60
2023/01/12 08:49:31;;;;;;;0.00;0.00;;;;;;;9.51;49.08;95375.41;4990780;28;20218;-60
2023/01/12 08:51:58;;;;;;;0.00;0.00;;;;;;;9.61;49.33;95379.00;4992054;28;20218;-62
2023/01/12 08:54:24;;;;;;;0.10;0.10;;;;;;;9.61;49.03;95370.34;4989907;28;20198;-60
2023/01/12 08:56:53;;;;;;;0.15;0.15;;;;;;;9.32;48.78;95392.34;4990420;28;20203;-60
2023/01/12 08:59:20;;;;;;;0.00;0.00;;;;;;;9.42;48.94;95388.06;4991687;28;20277;-60
2023/01/12 09:01:47;;;;;;;0.20;0.20;;;;;;;9.59;48.60;95394.13;4991135;28;20741;-61
2023/01/12 09:04:14;;;;;;;0.10;0.10;;;;;;;9.81;47.72;95383.75;4990967;28;20690;-59
2023/01/12 09:06:43;;;;;;;0.00;0.00;;;;;;;10.11;47.92;95392.06;4990714;28;20198;-60
2023/01/12 09:09:14;;;;;;;0.00;0.00;;;;;;;9.76;48.01;95394.16;4991198;28;20218;-60
2023/01/12 09:11:42;;;;;;;0.00;0.00;;;;;;;9.74;47.58;95394.41;4990859;28;20186;-59
2023/01/12 09:14:10;;;;;;;0.05;0.05;;;;;;;9.76;47.88;95394.16;4991197;28;20214;-60
2023/01/12 09:16:37;;;;;;;0.00;0.00;;;;;;;9.88;47.90;95390.41;4990294;28;20225;-61
2023/01/12 09:19:05;;;;;;;0.00;0.00;;;;;;;10.26;46.97;95384.44;4991241;28;20230;-60
2023/01/12 09:21:35;;;;;;;0.03;0.03;;;;;;;9.78;47.52;95376.38;4991084;28;20237;-59
2023/01/12 09:24:03;;;;;;;0.00;0.00;;;;;;;9.99;47.58;95376.44;4991136;28;20201;-60
2023/01/12 09:26:34;;;;;;;3.15;0.38;;;;;;;9.66;48.04;95384.31;4990751;28;20210;-60
2023/01/12 09:29:03;;;;;;;0.30;0.30;;;;;;;9.59;47.91;95388.09;4990914;28;20301;-60
2023/01/12 09:31:31;;;;;;;0.03;0.03;;;;;;;9.65;47.64;95384.53;4990325;28;20589;-61
2023/01/12 09:33:59;;;;;;;0.00;0.00;;;;;;;10.18;47.09;95377.03;4990648;28;20654;-59
2023/01/12 09:36:28;;;;;;;0.00;0.00;;;;;;;10.14;47.09;95376.69;4990442;28;20203;-59
2023/01/12 09:38:55;;;;;;;0.00;0.00;;;;;;;9.66;46.90;95362.56;4991068;28;20206;-60
2023/01/12 09:47:08;;;;;;;0.00;0.00;;;;;;;10.14;46.77;95374.06;4990852;28;20257;-60
2023/01/12 09:49:41;;;;;;;0.00;0.00;;;;;;;10.18;46.87;95377.03;4989643;28;20199;-61
2023/01/12 09:52:47;;;;;;;0.35;0.22;;;;;;;9.65;47.29;95371.47;4990539;28;20234;-61
2023/01/12 09:55:19;;;;;;;0.47;0.47;;;;;;;9.89;46.89;95367.66;4991625;28;20214;-59
2023/01/12 09:58:26;;;;;;;0.00;0.00;;;;;;;10.31;46.03;95360.16;4989740;28;20198;-60
2023/01/12 10:00:58;;;;;;;0.00;0.00;;;;;;;10.24;45.87;95351.69;4989480;28;20267;-59
2023/01/12 10:03:30;;;;;;;0.05;0.05;;;;;;;10.43;45.92;95353.78;4990172;28;20241;-59
2023/01/12 10:06:00;;;;;;;3.92;1.30;;;;;;;10.89;45.20;95361.13;4989761;28;20206;-60
2023/01/12 10:08:36;;;;;;;0.30;0.30;;;;;;;10.10;45.87;95370.34;4989843;28;20202;-61
2023/01/12 10:11:21;;;;;;;0.22;0.22;;;;;;;10.40;45.26;95359.47;4990076;28;20261;-60
2023/01/12 10:14:08;;;;;;;0.00;0.00;;;;;;;10.11;46.00;95365.91;4990224;28;20201;-61
2023/01/12 10:16:53;;;;;;;0.00;0.00;;;;;;;9.71;46.94;95354.78;4990111;28;20213;-61
2023/01/12 10:19:58;;;;;;;0.00;0.00;;;;;;;9.98;46.32;95361.00;4979742;28;20274;-60
2023/01/12 10:22:48;;;;;;;0.10;0.10;;;;;;;10.03;46.28;95358.44;4990170;28;20202;-60
2023/01/12 10:25:16;;;;;;;0.38;0.38;;;;;;;9.95;46.81;95361.44;4989113;28;20713;-60
2023/01/12 10:27:45;;;;;;;0.00;0.00;;;;;;;10.02;46.23;95362.06;4990445;28;20198;-59
2023/01/12 10:30:16;;;;;;;0.05;0.05;;;;;;;10.26;45.88;95358.25;4988860;28;20588;-61
2023/01/12 10:32:43;;;;;;;0.20;0.20;;;;;;;10.19;45.57;95350.59;4989976;28;20199;-59
2023/01/12 10:35:17;;;;;;;0.00;0.00;;;;;;;9.76;46.31;95357.50;4989453;28;20642;-60
2023/01/12 10:37:50;;;;;;;0.00;0.00;;;;;;;10.02;46.25;95362.06;4990024;28;20198;-60
2023/01/12 10:40:29;;;;;;;0.00;0.00;;;;;;;9.37;47.33;95364.47;4977650;28;20211;-61
2023/01/12 10:43:20;;;;;;;0.00;0.00;;;;;;;9.52;47.26;95369.16;4990354;28;20616;-60
2023/01/12 10:46:02;;;;;;;0.00;0.00;;;;;;;9.11;47.53;95365.84;4989929;28;20226;-61
2023/01/12 10:48:30;;;;;;;0.00;0.00;;;;;;;9.45;46.92;95344.97;4990122;28;20209;-60
2023/01/12 10:51:23;;;;;;;0.28;0.28;;;;;;;9.48;46.97;95347.09;4989727;28;20193;-62
2023/01/12 10:54:01;;;;;;;0.00;0.00;;;;;;;9.93;46.76;95345.97;4989771;28;20323;-60
2023/01/12 10:56:36;;;;;;;0.00;0.00;;;;;;;9.76;46.06;95344.44;4978103;28;20285;-60
2023/01/12 10:59:09;;;;;;;0.00;0.00;;;;;;;9.55;46.69;95343.31;4989302;28;20226;-60
2023/01/12 11:02:10;;;;;;;0.00;0.00;;;;;;;9.62;46.66;95345.75;4989121;28;20234;-59
2023/01/12 11:04:43;;;;;;;1.65;0.40;;;;;;;9.63;46.21;95332.47;4976683;28;20220;-60
2023/01/12 11:07:18;;;;;;;0.00;0.00;;;;;;;9.44;46.97;95335.53;4989058;28;21058;-60
2023/01/12 11:09:45;;;;;;;0.10;0.10;;;;;;;9.73;45.97;95342.28;4988935;28;20204;-61
2023/01/12 11:12:28;;;;;;;0.00;0.00;;;;;;;8.88;48.27;95334.59;4989407;28;20210;-60
2023/01/12 11:15:09;;;;;;;0.00;0.00;;;;;;;9.64;46.93;95333.22;4988758;28;20198;-60
2023/01/12 11:18:01;;;;;;;0.00;0.00;;;;;;;10.02;45.67;95331.47;4978290;28;20659;-60
2023/01/12 11:20:49;;;;;;;1.35;0.43;;;;;;;10.08;45.41;95324.47;4989680;28;20226;-61
2023/01/12 11:23:27;;;;;;;0.03;0.03;;;;;;;9.59;46.01;95336.56;4993184;28;20644;-60
2023/01/12 11:25:56;;;;;;;1.85;0.68;;;;;;;9.91;45.70;95334.97;4992989;28;20225;-59
2023/01/12 11:28:32;;;;;;;0.25;0.25;;;;;;;9.86;45.97;95311.34;4993022;28;20286;-60
2023/01/12 11:31:11;;;;;;;0.00;0.00;;;;;;;9.95;45.99;95311.72;4992888;28;20226;-60
2023/01/12 11:33:45;;;;;;;0.00;0.00;;;;;;;10.22;45.11;95315.25;4993511;28;20228;-60
2023/01/12 11:36:23;;;;;;;0.10;0.10;;;;;;;9.27;47.01;95322.44;4992614;28;20261;-59
2023/01/12 11:38:54;;;;;;;0.22;0.22;;;;;;;9.31;47.20;95313.09;4992906;28;20252;-64
2023/01/12 11:41:33;;;;;;;0.43;0.43;;;;;;;9.96;46.32;95308.84;4992159;28;20229;-59
2023/01/12 11:44:10;;;;;;;0.68;0.68;;;;;;;9.87;46.68;95317.38;4993334;28;20620;-59
2023/01/12 11:47:09;;;;;;;0.13;0.13;;;;;;;9.54;46.60;95314.78;4979999;28;20288;-60
2023/01/12 11:49:57;;;;;;;0.00;0.00;;;;;;;9.86;46.43;95310.53;4992027;28;20226;-60
2023/01/12 11:52:26;;;;;;;0.10;0.10;;;;;;;9.85;46.15;95308.97;4992677;28;20736;-60
2023/01/12 11:54:53;;;;;;;0.00;0.00;;;;;;;9.84;46.17;95292.47;4992156;28;20198;-61
2023/01/12 11:57:23;;;;;;;0.00;0.00;;;;;;;9.94;45.79;95297.06;4992935;28;20276;-61
2023/01/12 12:00:01;;;;;;;0.10;0.10;;;;;;;10.07;45.93;95292.25;4992345;28;20200;-60
2023/01/12 12:02:36;;;;;;;0.28;0.28;;;;;;;10.23;45.74;95290.66;4992528;28;20203;-61
2023/01/12 12:05:15;;;;;;;0.00;0.00;;;;;;;11.02;44.50;95289.94;4992015;28;20238;-61
2023/01/12 12:08:04;;;;;;;0.00;0.00;;;;;;;11.10;44.39;95292.13;4992448;28;20943;-60
2023/01/12 12:10:46;;;;;;;0.10;0.10;;;;;;;10.82;44.18;95289.75;4991724;28;20276;-60
2023/01/12 12:13:16;;;;;;;0.25;0.05;;;;;;;11.01;44.10;95288.38;4992363;28;20229;-60
2023/01/12 12:16:04;;;;;;;0.25;0.25;;;;;;;11.18;43.72;95288.28;4992031;28;20195;-60
2023/01/12 12:18:59;;;;;;;0.85;0.40;;;;;;;11.28;43.87;95292.81;4992216;28;20217;-61
2023/01/12 12:21:28;;;;;;;0.10;0.10;;;;;;;11.47;43.23;95286.16;4992010;28;20700;-61
2023/01/12 12:24:09;;;;;;;0.32;0.32;;;;;;;11.13;43.93;95296.88;4992777;28;20580;-59
2023/01/12 12:26:43;;;;;;;1.15;1.10;;;;;;;11.10;44.21;95292.13;4991656;28;20204;-60
2023/01/12 12:29:25;;;;;;;0.30;0.30;;;;;;;11.34;43.24;95281.31;4992512;28;20210;-61
2023/01/12 12:32:15;;;;;;;0.00;0.00;;;;;;;10.77;44.41;95292.31;4991814;28;20293;-60
2023/01/12 12:34:47;;;;;;;0.63;0.30;;;;;;;10.45;45.21;95288.84;4991087;28;20669;-59
2023/01/12 12:37:29;;;;;;;0.52;0.47;;;;;;;10.44;45.24;95292.47;4992027;28;20206;-60
2023/01/12 12:40:11;;;;;;;0.28;0.28;;;;;;;10.57;44.76;95288.69;4991636;28;20277;-58
2023/01/12 12:45:53;;;;;;;0.10;0.10;;;;;;;10.86;44.54;95290.03;4991369;28;20199;-61